createdAt,value
2023-02-15T00:01:27.010Z,45.17
2023-02-15T00:03:53.410Z,44.15
2023-02-15T00:06:19.916Z,44.35
2023-02-15T00:08:46.244Z,45.88
2023-02-15T00:11:16.539Z,45.20
2023-02-15T00:13:43.337Z,46.78
2023-02-15T00:16:13.546Z,51.67
2023-02-15T00:18:40.326Z,49.33
2023-02-15T00:21:07.879Z,48.65
2023-02-15T00:23:34.536Z,48.25
2023-02-15T00:26:05.089Z,46.00
2023-02-15T00:28:31.751Z,48.42
2023-02-15T00:31:05.431Z,49.78
2023-02-15T00:33:32.125Z,45.30
2023-02-15T00:36:02.334Z,44.20
2023-02-15T00:38:29.382Z,40.22
2023-02-15T00:40:56.469Z,45.60
2023-02-15T00:43:22.954Z,41.58
2023-02-15T00:45:49.779Z,41.22
2023-02-15T00:48:16.164Z,37.95
2023-02-15T00:50:42.588Z,44.15
2023-02-15T00:53:08.968Z,39.72
2023-02-15T00:55:35.321Z,38.88
2023-02-15T00:58:01.735Z,37.55
2023-02-15T01:00:28.299Z,35.53
2023-02-15T01:02:54.605Z,40.88
2023-02-15T01:05:20.930Z,41.38
2023-02-15T01:07:47.430Z,42.47
2023-02-15T01:10:13.775Z,44.22
2023-02-15T01:12:40.161Z,40.10
2023-02-15T01:15:06.687Z,39.03
2023-02-15T01:17:33.155Z,47.40
2023-02-15T01:20:00.256Z,46.70
2023-02-15T01:22:26.711Z,44.50
2023-02-15T01:24:53.127Z,45.95
2023-02-15T01:27:19.549Z,43.58
2023-02-15T01:29:46.126Z,47.35
2023-02-15T01:32:12.568Z,39.22
2023-02-15T01:34:38.960Z,45.53
2023-02-15T01:37:05.341Z,34.17
2023-02-15T01:39:31.845Z,35.75
2023-02-15T01:41:58.271Z,36.03
2023-02-15T01:44:43.001Z,30.50
2023-02-15T01:47:12.067Z,26.57
2023-02-15T01:49:44.796Z,35.30
2023-02-15T01:52:11.906Z,34.15
2023-02-15T01:54:39.800Z,31.92
2023-02-15T01:57:10.149Z,33.10
2023-02-15T01:59:37.808Z,33.45
2023-02-15T02:02:04.994Z,35.17
2023-02-15T02:04:57.833Z,31.38
2023-02-15T02:07:26.182Z,33.28
2023-02-15T02:09:53.283Z,37.40
2023-02-15T02:12:21.793Z,37.05
2023-02-15T02:14:49.291Z,36.03
2023-02-15T02:17:23.043Z,37.58
2023-02-15T02:20:04.558Z,40.92
2023-02-15T02:22:36.950Z,39.03
2023-02-15T02:25:19.909Z,38.88
2023-02-15T02:27:53.036Z,40.58
2023-02-15T02:30:25.820Z,38.90
2023-02-15T02:33:00.765Z,35.08
2023-02-15T02:35:45.376Z,34.30
2023-02-15T02:38:14.754Z,33.97
2023-02-15T02:40:44.578Z,39.30
2023-02-15T02:43:16.837Z,37.70
2023-02-15T02:45:46.471Z,38.17
2023-02-15T02:48:24.122Z,37.33
2023-02-15T02:50:50.501Z,33.38
2023-02-15T02:53:16.971Z,32.50
2023-02-15T02:55:48.109Z,30.83
2023-02-15T02:58:23.707Z,39.72
2023-02-15T03:01:12.976Z,34.20
2023-02-15T03:04:08.784Z,36.63
2023-02-15T03:06:35.200Z,34.78
2023-02-15T03:09:15.417Z,32.65
2023-02-15T03:11:43.606Z,31.17
2023-02-15T03:14:10.386Z,32.67
2023-02-15T03:16:37.564Z,31.00
2023-02-15T03:19:09.536Z,28.80
2023-02-15T03:21:58.848Z,32.72
2023-02-15T03:24:27.778Z,32.63
2023-02-15T03:26:55.348Z,33.28
2023-02-15T03:29:23.317Z,33.50
2023-02-15T03:31:52.626Z,36.47
2023-02-15T03:34:19.383Z,32.65
2023-02-15T03:36:54.432Z,28.70
2023-02-15T03:39:32.838Z,33.28
2023-02-15T03:42:02.926Z,32.05
2023-02-15T03:44:30.758Z,34.35
2023-02-15T03:46:57.303Z,35.55
2023-02-15T03:49:25.850Z,33.17
2023-02-15T03:51:54.233Z,31.88
2023-02-15T03:54:44.537Z,33.42
2023-02-15T03:57:40.716Z,28.17
2023-02-15T04:00:28.778Z,31.65
2023-02-15T04:03:04.472Z,28.40
2023-02-15T04:05:30.864Z,36.72
2023-02-15T04:07:57.237Z,27.02
2023-02-15T04:10:42.165Z,27.75
2023-02-15T04:13:08.520Z,25.08
2023-02-15T04:15:53.617Z,25.27
2023-02-15T04:18:19.960Z,26.35
2023-02-15T04:21:05.848Z,26.38
2023-02-15T04:23:52.866Z,25.10
2023-02-15T04:26:28.542Z,24.20
2023-02-15T04:28:56.104Z,24.80
2023-02-15T04:31:23.027Z,23.83
2023-02-15T04:33:49.356Z,22.92
2023-02-15T04:36:15.833Z,23.08
2023-02-15T04:38:42.236Z,24.77
2023-02-15T04:41:09.015Z,23.33
2023-02-15T04:43:35.367Z,24.30
2023-02-15T04:46:02.123Z,24.90
2023-02-15T04:48:28.711Z,23.42
2023-02-15T04:50:55.080Z,26.35
2023-02-15T04:53:23.838Z,26.48
2023-02-15T04:55:50.262Z,24.60
2023-02-15T04:58:16.666Z,25.20
2023-02-15T05:00:43.053Z,23.90
2023-02-15T05:03:09.619Z,22.75
2023-02-15T05:05:36.075Z,29.52
2023-02-15T05:08:02.497Z,24.50
2023-02-15T05:10:28.962Z,22.73
2023-02-15T05:12:55.316Z,26.38
2023-02-15T05:15:21.728Z,28.20
2023-02-15T05:17:48.129Z,24.25
2023-02-15T05:20:14.778Z,22.52
2023-02-15T05:22:41.877Z,24.05
2023-02-15T05:25:27.764Z,24.23
2023-02-15T05:28:12.793Z,24.15
2023-02-15T05:30:40.744Z,20.33
2023-02-15T05:33:10.216Z,24.00
2023-02-15T05:35:36.641Z,29.10
2023-02-15T05:38:02.947Z,28.63
2023-02-15T05:40:29.405Z,30.45
2023-02-15T05:42:56.773Z,24.40
2023-02-15T05:45:23.246Z,24.88
2023-02-15T05:47:49.653Z,28.15
2023-02-15T05:50:16.160Z,30.35
2023-02-15T05:52:42.684Z,24.05
2023-02-15T05:55:09.878Z,24.05
2023-02-15T05:57:36.922Z,24.17
2023-02-15T06:00:05.300Z,26.35
2023-02-15T06:02:35.508Z,19.52
2023-02-15T06:05:02.318Z,21.77
2023-02-15T06:07:28.805Z,24.52
2023-02-15T06:09:55.236Z,23.73
2023-02-15T06:12:21.763Z,24.10
2023-02-15T06:14:48.205Z,22.02
2023-02-15T06:17:14.769Z,23.27
2023-02-15T06:19:41.129Z,25.45
2023-02-15T06:22:07.557Z,22.73
2023-02-15T06:24:33.910Z,22.13
2023-02-15T06:27:01.677Z,24.00
2023-02-15T06:29:28.072Z,23.70
2023-02-15T06:31:54.531Z,21.40
2023-02-15T06:34:20.961Z,21.92
2023-02-15T06:36:47.352Z,19.92
2023-02-15T06:39:13.755Z,18.65
2023-02-15T06:41:40.148Z,22.15
2023-02-15T06:44:06.578Z,25.52
2023-02-15T06:46:32.931Z,35.55
2023-02-15T06:48:59.442Z,32.63
2023-02-15T06:51:25.824Z,32.35
2023-02-15T06:53:52.238Z,29.73
2023-02-15T06:56:18.605Z,38.83
2023-02-15T06:58:47.054Z,30.15
2023-02-15T07:01:13.644Z,26.75
2023-02-15T07:03:40.199Z,32.97
2023-02-15T07:06:09.351Z,27.98
2023-02-15T07:08:36.721Z,29.42
2023-02-15T07:11:21.543Z,28.83
2023-02-15T07:13:48.100Z,29.27
2023-02-15T07:16:14.496Z,24.67
2023-02-15T07:18:41.239Z,24.58
2023-02-15T07:21:10.587Z,27.70
2023-02-15T07:23:37.668Z,26.75
2023-02-15T07:26:04.648Z,25.55
2023-02-15T07:28:31.144Z,20.13
2023-02-15T07:30:58.566Z,20.98
2023-02-15T07:33:25.252Z,22.58
2023-02-15T07:35:52.539Z,23.65
2023-02-15T07:38:19.543Z,24.05
2023-02-15T07:40:45.936Z,23.63
2023-02-15T07:43:12.764Z,25.52
2023-02-15T07:45:39.483Z,24.10
2023-02-15T07:48:06.638Z,24.00
2023-02-15T07:50:33.104Z,23.23
2023-02-15T07:52:59.834Z,25.02
2023-02-15T07:55:26.173Z,29.88
2023-02-15T07:57:54.860Z,25.77
2023-02-15T08:00:25.638Z,28.38
2023-02-15T08:03:13.287Z,26.33
2023-02-15T08:05:41.422Z,25.00
2023-02-15T08:08:08.514Z,21.70
2023-02-15T08:10:54.900Z,25.70
2023-02-15T08:13:21.329Z,21.42
2023-02-15T08:15:50.976Z,26.65
2023-02-15T08:18:17.392Z,34.28
2023-02-15T08:20:43.958Z,28.95
2023-02-15T08:23:10.543Z,23.58
2023-02-15T08:25:36.956Z,19.00
2023-02-15T08:28:03.326Z,17.30
2023-02-15T08:30:29.785Z,15.88
2023-02-15T08:32:56.321Z,16.83
2023-02-15T08:35:22.787Z,17.42
2023-02-15T08:37:49.160Z,16.85
2023-02-15T08:40:15.645Z,19.88
2023-02-15T08:42:42.016Z,21.48
2023-02-15T08:45:08.683Z,18.98
2023-02-15T08:47:35.023Z,19.15
2023-02-15T08:50:01.651Z,18.48
2023-02-15T08:52:28.079Z,18.05
2023-02-15T08:54:54.801Z,17.75
2023-02-15T08:57:21.191Z,17.50
2023-02-15T08:59:47.561Z,19.25
2023-02-15T09:02:14.112Z,21.88
2023-02-15T09:04:43.067Z,20.20
2023-02-15T09:07:09.585Z,20.80
2023-02-15T09:09:35.943Z,17.35
2023-02-15T09:12:02.446Z,14.98
2023-02-15T09:14:29.000Z,13.27
2023-02-15T09:16:55.729Z,15.75
2023-02-15T09:19:23.015Z,13.73
2023-02-15T09:21:49.473Z,12.52
2023-02-15T09:24:17.027Z,14.70
2023-02-15T09:26:46.479Z,16.15
2023-02-15T09:29:13.798Z,16.67
2023-02-15T09:31:42.525Z,17.95
2023-02-15T09:34:09.452Z,17.92
2023-02-15T09:36:36.610Z,12.05
2023-02-15T09:39:06.819Z,17.17
2023-02-15T09:41:33.263Z,11.55
2023-02-15T09:43:59.710Z,15.80
2023-02-15T09:46:35.125Z,14.93
2023-02-15T09:49:27.992Z,10.70
2023-02-15T09:52:03.432Z,9.82
2023-02-15T09:54:33.016Z,10.85
2023-02-15T09:57:03.302Z,13.20
2023-02-15T09:59:29.641Z,9.13
2023-02-15T10:01:59.219Z,11.70
2023-02-15T10:04:33.979Z,14.55
2023-02-15T10:07:07.536Z,9.97
2023-02-15T10:09:51.059Z,10.52
2023-02-15T10:12:26.658Z,8.60
2023-02-15T10:17:25.463Z,4.45
2023-02-15T10:19:51.780Z,4.85
2023-02-15T10:22:19.490Z,5.40
2023-02-15T10:24:48.727Z,4.82
2023-02-15T10:27:22.292Z,3.78
2023-02-15T10:29:49.821Z,7.10
2023-02-15T10:32:24.507Z,5.90
2023-02-15T10:35:20.462Z,7.50
2023-02-15T10:37:54.668Z,9.88
2023-02-15T10:40:39.568Z,7.43
2023-02-15T10:43:07.871Z,4.25
2023-02-15T10:45:49.570Z,6.45
2023-02-15T10:48:22.138Z,7.32
2023-02-15T10:50:52.949Z,5.18
2023-02-15T10:53:25.358Z,2.90
2023-02-15T10:55:56.305Z,3.92
2023-02-15T10:58:38.086Z,4.10
2023-02-15T11:01:27.860Z,6.53
2023-02-15T11:04:00.615Z,15.57
2023-02-15T11:06:27.593Z,7.43
2023-02-15T11:09:00.769Z,5.40
2023-02-15T11:11:27.062Z,12.45
2023-02-15T11:13:57.455Z,12.20
2023-02-15T11:16:26.071Z,10.18
2023-02-15T11:18:57.259Z,13.13
2023-02-15T11:21:25.118Z,7.43
2023-02-15T11:23:53.504Z,7.18
2023-02-15T11:26:38.352Z,6.30
2023-02-15T11:29:14.000Z,6.03
2023-02-15T11:31:48.673Z,4.20
2023-02-15T11:34:21.636Z,3.30
2023-02-15T11:36:48.818Z,8.30
2023-02-15T11:39:16.989Z,4.68
2023-02-15T11:41:47.531Z,6.53
2023-02-15T11:44:13.882Z,6.47
2023-02-15T11:46:40.445Z,6.72
2023-02-15T11:49:28.653Z,5.57
2023-02-15T11:51:56.207Z,3.30
2023-02-15T11:54:25.407Z,9.07
2023-02-15T11:56:51.993Z,5.60
2023-02-15T11:59:22.246Z,4.55
2023-02-15T12:01:48.665Z,6.32
2023-02-15T12:04:15.247Z,4.00
2023-02-15T12:06:50.618Z,3.75
2023-02-15T12:09:36.035Z,5.70
2023-02-15T12:12:20.994Z,4.20
2023-02-15T12:14:49.363Z,3.67
2023-02-15T12:17:17.066Z,5.15
2023-02-15T12:19:44.594Z,3.75
2023-02-15T12:22:20.976Z,3.95
2023-02-15T12:24:48.251Z,3.50
2023-02-15T12:27:17.568Z,3.60
2023-02-15T12:29:46.788Z,4.00
2023-02-15T12:32:20.454Z,2.25
2023-02-15T12:34:48.186Z,2.88
2023-02-15T12:37:23.700Z,4.68
2023-02-15T12:39:54.745Z,5.10
2023-02-15T12:42:22.610Z,4.05
2023-02-15T12:44:58.448Z,3.33
2023-02-15T12:47:30.515Z,5.63
2023-02-15T12:50:12.181Z,2.05
2023-02-15T12:52:40.241Z,3.00
2023-02-15T12:55:20.183Z,5.90
2023-02-15T12:57:48.226Z,3.28
2023-02-15T13:00:20.514Z,2.40
2023-02-15T13:02:52.355Z,4.72
2023-02-15T13:05:24.742Z,2.70
2023-02-15T13:07:52.988Z,5.53
2023-02-15T13:10:23.721Z,2.30
2023-02-15T13:12:54.899Z,3.38
2023-02-15T13:15:31.010Z,2.28
2023-02-15T13:17:58.911Z,2.47
2023-02-15T13:20:28.116Z,2.30
2023-02-15T13:23:03.050Z,2.08
2023-02-15T13:25:31.704Z,2.25
2023-02-15T13:28:05.354Z,2.80
2023-02-15T13:30:36.028Z,2.90
2023-02-15T13:33:34.766Z,2.03
2023-02-15T13:36:21.260Z,2.95
2023-02-15T13:38:47.673Z,3.55
2023-02-15T13:41:16.553Z,3.67
2023-02-15T13:43:52.273Z,4.13
2023-02-15T13:48:51.250Z,2.53
2023-02-15T13:51:23.387Z,1.98
2023-02-15T13:53:52.975Z,2.55
2023-02-15T13:56:19.332Z,2.35
2023-02-15T13:58:48.756Z,4.50
2023-02-15T14:01:23.974Z,2.03
2023-02-15T14:03:50.364Z,2.55
2023-02-15T14:06:35.602Z,3.78
2023-02-15T14:09:07.730Z,2.40
2023-02-15T14:11:45.478Z,6.15
2023-02-15T14:14:20.958Z,3.72
2023-02-15T14:17:00.844Z,5.55
2023-02-15T14:19:32.293Z,4.38
2023-02-15T14:22:09.320Z,2.22
2023-02-15T14:24:45.505Z,3.70
2023-02-15T14:27:12.089Z,2.25
2023-02-15T14:29:38.592Z,2.15
2023-02-15T14:32:13.348Z,2.00
2023-02-15T14:34:45.940Z,4.17
2023-02-15T14:37:12.923Z,2.55
2023-02-15T14:40:10.183Z,2.00
2023-02-15T14:42:42.430Z,1.77
2023-02-15T14:45:15.012Z,2.95
2023-02-15T14:47:44.772Z,2.08
2023-02-15T14:50:30.113Z,2.22
2023-02-15T14:53:15.340Z,1.83
2023-02-15T14:55:44.231Z,3.47
2023-02-15T14:58:13.841Z,3.05
2023-02-15T15:00:43.648Z,3.28
2023-02-15T15:03:20.462Z,3.17
2023-02-15T15:05:52.530Z,3.58
2023-02-15T15:08:25.728Z,2.20
2023-02-15T15:10:52.176Z,3.58
2023-02-15T15:13:38.869Z,1.23
2023-02-15T15:16:24.117Z,2.05
2023-02-15T15:18:50.478Z,3.23
2023-02-15T15:21:35.601Z,1.38
2023-02-15T15:24:01.985Z,1.73
2023-02-15T15:26:29.759Z,1.25
2023-02-15T15:28:58.218Z,1.95
2023-02-15T15:31:28.784Z,1.38
2023-02-15T15:34:15.388Z,2.88
2023-02-15T15:36:51.086Z,3.78
2023-02-15T15:41:43.777Z,1.95
2023-02-15T15:44:25.654Z,2.13
2023-02-15T15:46:52.071Z,1.30
2023-02-15T15:49:19.967Z,2.65
2023-02-15T15:51:46.834Z,1.25
2023-02-15T15:54:23.543Z,2.63
2023-02-15T15:56:54.709Z,3.53
2023-02-15T15:59:23.594Z,2.63
2023-02-15T16:01:50.900Z,3.90
2023-02-15T16:04:26.385Z,1.67
2023-02-15T16:06:52.715Z,2.78
2023-02-15T16:09:19.806Z,2.97
2023-02-15T16:11:47.519Z,3.50
2023-02-15T16:14:15.830Z,1.90
2023-02-15T16:16:46.937Z,1.58
2023-02-15T16:19:19.221Z,2.80
2023-02-15T16:21:48.124Z,6.43
2023-02-15T16:24:20.765Z,4.13
2023-02-15T16:27:10.334Z,6.15
2023-02-15T16:29:36.844Z,2.78
2023-02-15T16:32:16.161Z,3.67
2023-02-15T16:34:59.488Z,4.60
2023-02-15T16:37:28.233Z,3.78
2023-02-15T16:39:55.983Z,5.95
2023-02-15T16:42:23.256Z,3.85
2023-02-15T16:44:52.328Z,3.67
2023-02-15T16:47:20.601Z,3.92
2023-02-15T16:49:48.365Z,2.92
2023-02-15T16:52:19.464Z,2.90
2023-02-15T16:54:45.975Z,4.93
2023-02-15T16:57:35.692Z,4.75
2023-02-15T17:00:05.853Z,2.63
2023-02-15T17:02:54.325Z,3.75
2023-02-15T17:05:21.089Z,3.05
2023-02-15T17:07:50.545Z,4.72
2023-02-15T17:10:34.861Z,2.42
2023-02-15T17:13:02.124Z,4.10
2023-02-15T17:15:34.218Z,2.70
2023-02-15T17:18:20.847Z,4.82
2023-02-15T17:20:48.444Z,3.45
2023-02-15T17:23:27.044Z,2.80
2023-02-15T17:25:53.780Z,3.03
2023-02-15T17:28:21.585Z,6.10
2023-02-15T17:30:48.523Z,2.63
2023-02-15T17:33:21.014Z,3.08
2023-02-15T17:36:03.593Z,3.25
2023-02-15T17:38:29.934Z,3.63
2023-02-15T17:40:57.290Z,4.50
2023-02-15T17:43:23.726Z,4.05
2023-02-15T17:45:51.275Z,6.85
2023-02-15T17:48:31.739Z,3.13
2023-02-15T17:50:58.787Z,3.42
2023-02-15T17:53:25.860Z,2.75
2023-02-15T17:55:52.407Z,3.40
2023-02-15T17:58:19.587Z,6.05
2023-02-15T18:01:09.533Z,7.03
2023-02-15T18:04:10.752Z,5.68
2023-02-15T18:06:57.544Z,4.63
2023-02-15T18:09:42.931Z,5.75
2023-02-15T18:12:20.037Z,4.55
2023-02-15T18:14:46.340Z,4.00
2023-02-15T18:17:16.126Z,7.65
2023-02-15T18:19:44.032Z,4.28
2023-02-15T18:22:11.631Z,3.70
2023-02-15T18:24:38.189Z,5.18
2023-02-15T18:27:05.141Z,7.57
2023-02-15T18:29:31.671Z,6.22
2023-02-15T18:31:59.203Z,4.90
2023-02-15T18:34:28.257Z,4.80
2023-02-15T18:36:54.792Z,4.95
2023-02-15T18:39:31.977Z,4.85
2023-02-15T18:41:58.849Z,5.45
2023-02-15T18:44:26.067Z,4.22
2023-02-15T18:46:52.401Z,4.15
2023-02-15T18:49:18.828Z,5.20
2023-02-15T18:51:45.431Z,4.90
2023-02-15T18:54:19.383Z,6.60
2023-02-15T18:56:48.048Z,4.90
2023-02-15T18:59:17.956Z,7.97
2023-02-15T19:01:44.467Z,5.05
2023-02-15T19:04:11.055Z,8.10
2023-02-15T19:06:39.444Z,13.00
2023-02-15T19:09:05.803Z,19.35
2023-02-15T19:11:32.356Z,20.30
2023-02-15T19:13:58.708Z,18.38
2023-02-15T19:16:28.307Z,20.48
2023-02-15T19:18:54.862Z,22.00
2023-02-15T19:21:21.448Z,21.65
2023-02-15T19:23:50.155Z,17.15
2023-02-15T19:26:16.642Z,18.83
2023-02-15T19:28:42.989Z,19.75
2023-02-15T19:31:11.827Z,18.23
2023-02-15T19:33:38.785Z,18.60
2023-02-15T19:36:06.410Z,14.35
2023-02-15T19:38:35.181Z,13.07
2023-02-15T19:41:04.274Z,16.45
2023-02-15T19:43:30.691Z,16.08
2023-02-15T19:45:57.072Z,14.48
2023-02-15T19:48:23.544Z,15.07
2023-02-15T19:50:50.003Z,17.55
2023-02-15T19:53:19.176Z,12.10
2023-02-15T19:55:45.594Z,15.43
2023-02-15T19:58:13.897Z,11.77
2023-02-15T20:00:40.312Z,15.32
2023-02-15T20:03:06.954Z,12.65
2023-02-15T20:05:34.907Z,15.43
2023-02-15T20:08:01.672Z,15.63
2023-02-15T20:10:29.163Z,12.95
2023-02-15T20:12:55.939Z,11.52
2023-02-15T20:15:22.431Z,13.50
2023-02-15T20:17:49.455Z,13.60
2023-02-15T20:20:16.149Z,10.88
2023-02-15T20:22:43.955Z,15.25
2023-02-15T20:25:12.109Z,16.00
2023-02-15T20:27:42.311Z,9.85
2023-02-15T20:30:18.628Z,10.65
2023-02-15T20:32:45.096Z,10.27
2023-02-15T20:35:19.165Z,10.35
2023-02-15T20:37:46.491Z,10.50
2023-02-15T20:40:17.899Z,10.90
2023-02-15T20:42:44.740Z,9.27
2023-02-15T20:45:17.515Z,11.50
2023-02-15T20:47:48.323Z,11.68
2023-02-15T20:50:15.752Z,11.65
2023-02-15T20:52:42.231Z,9.95
2023-02-15T20:55:16.311Z,14.10
2023-02-15T20:57:42.709Z,13.10
2023-02-15T21:00:28.384Z,13.35
2023-02-15T21:02:58.819Z,12.75
2023-02-15T21:05:27.296Z,17.20
2023-02-15T21:07:54.305Z,11.27
2023-02-15T21:10:22.744Z,14.02
2023-02-15T21:12:49.802Z,15.55
2023-02-15T21:15:28.457Z,12.45
2023-02-15T21:17:55.137Z,12.93
2023-02-15T21:20:22.132Z,13.85
2023-02-15T21:22:48.680Z,14.85
2023-02-15T21:25:15.869Z,17.17
2023-02-15T21:27:42.352Z,14.05
2023-02-15T21:30:15.988Z,14.00
2023-02-15T21:32:43.022Z,17.95
2023-02-15T21:35:11.295Z,18.00
2023-02-15T21:37:39.781Z,18.05
2023-02-15T21:40:15.525Z,14.82
2023-02-15T21:43:00.511Z,15.85
2023-02-15T21:45:45.821Z,17.33
2023-02-15T21:48:12.213Z,16.83
2023-02-15T21:50:57.095Z,18.17
2023-02-15T21:53:26.189Z,18.95
2023-02-15T21:55:54.634Z,18.67
2023-02-15T21:58:22.684Z,20.13
2023-02-15T22:00:49.364Z,22.10
2023-02-15T22:03:16.045Z,21.00
2023-02-15T22:05:42.625Z,21.42
2023-02-15T22:08:12.858Z,20.80
2023-02-15T22:10:40.077Z,18.17
2023-02-15T22:13:09.518Z,17.63
2023-02-15T22:15:37.101Z,17.73
2023-02-15T22:18:03.848Z,16.13
2023-02-15T22:20:30.422Z,14.77
2023-02-15T22:22:56.781Z,13.60
2023-02-15T22:25:24.322Z,9.43
2023-02-15T22:27:51.757Z,8.75
2023-02-15T22:30:21.189Z,7.70
2023-02-15T22:32:47.719Z,6.90
2023-02-15T22:35:22.337Z,8.10
2023-02-15T22:37:48.787Z,7.87
2023-02-15T22:40:16.247Z,8.57
2023-02-15T22:42:43.185Z,7.82
2023-02-15T22:45:15.742Z,9.43
2023-02-15T22:47:42.114Z,9.60
2023-02-15T22:50:17.753Z,7.47
2023-02-15T22:55:13.647Z,9.00
2023-02-15T22:57:40.075Z,7.35
2023-02-15T23:00:06.924Z,10.05
2023-02-15T23:02:33.456Z,10.23
2023-02-15T23:04:59.820Z,7.93
2023-02-15T23:07:26.335Z,10.25
2023-02-15T23:09:52.745Z,8.82
2023-02-15T23:12:19.086Z,11.30
2023-02-15T23:14:45.496Z,10.55
2023-02-15T23:17:14.971Z,10.18
2023-02-15T23:19:41.274Z,12.95
2023-02-15T23:22:14.780Z,11.88
2023-02-15T23:24:41.327Z,12.10
2023-02-15T23:27:28.679Z,9.57
2023-02-15T23:29:55.056Z,11.95
2023-02-15T23:32:22.240Z,12.10
2023-02-15T23:34:48.677Z,11.30
2023-02-15T23:37:15.638Z,11.27
2023-02-15T23:40:00.522Z,8.35
2023-02-15T23:42:29.208Z,11.02
2023-02-15T23:44:55.847Z,10.27
2023-02-15T23:47:53.948Z,11.50
2023-02-15T23:50:21.997Z,10.00
2023-02-15T23:52:49.474Z,10.52
2023-02-15T23:55:16.429Z,11.38
2023-02-15T23:57:43.539Z,9.82
